KBKV

Brooksville-Tampa Bay Regional Airport

Brooksville, Florida, USA
METAR KBKV 210653Z AUTO 09006KT 10SM OVC075 22/21 A3005 RMK AO2 SLP174 T02170206
Observed Flight Rules
May-21 @ 06:53 UTC (23 minutes ago) Visual Flight Rules
Wind Visibility Clouds
90° at 6 knots 10 miles
  • Overcast at 7,500' AGL
Temperatures Readings
Current 22°C / 72°F
Dewpoint 21°C / 70°F
Humidity 94%
Altimeter 30.05" Hg
Pressure 1017.4 hPa
Elevation 20
METAR KBKV 210653Z AUTO 09006KT 10SM OVC075 22/21 A3005 RMK AO2 SLP174 T02170206
Observed Flight Rules
May-21 @ 06:53 UTC
(23 minutes ago)
VFR
Wind Visibility
90° at 6 knots 10 miles
Clouds
  • Overcast at 7,500' AGL
Temperature Dewpoint
22°C / 72°F 21°C / 70°F
Humidity Altimeter Pressure
94% 30.05" Hg 1017.4 hPa